createdAt,value
2019-04-14T00:00:44.982Z,97.83
2019-04-14T00:01:45.513Z,98.02
2019-04-14T00:02:44.963Z,97.83
2019-04-14T00:03:45.414Z,97.83
2019-04-14T00:04:44.936Z,97.73
2019-04-14T00:05:45.128Z,97.92
2019-04-14T00:06:46.174Z,97.83
2019-04-14T00:07:45.087Z,97.07
2019-04-14T00:08:45.907Z,96.50
2019-04-14T00:09:45.312Z,96.59
2019-04-14T00:10:44.864Z,96.97
2019-04-14T00:11:45.899Z,96.88
2019-04-14T00:12:44.930Z,96.69
2019-04-14T00:13:45.670Z,96.88
2019-04-14T00:14:44.826Z,96.69
2019-04-14T00:15:48.486Z,96.69
2019-04-14T00:16:44.803Z,96.50
2019-04-14T00:17:45.639Z,96.50
2019-04-14T00:18:44.810Z,96.69
2019-04-14T00:19:45.642Z,96.69
2019-04-14T00:20:44.848Z,96.50
2019-04-14T00:21:45.456Z,96.69
2019-04-14T00:22:44.732Z,96.88
2019-04-14T00:23:45.627Z,96.97
2019-04-14T00:24:44.706Z,96.69
2019-04-14T00:25:45.489Z,96.88
2019-04-14T00:26:44.686Z,96.88
2019-04-14T00:27:45.343Z,96.78
2019-04-14T00:28:44.755Z,96.88
2019-04-14T00:29:45.775Z,96.69
2019-04-14T00:30:44.810Z,96.88
2019-04-14T00:31:45.531Z,96.69
2019-04-14T00:32:44.609Z,96.88
2019-04-14T00:33:45.326Z,96.88
2019-04-14T00:34:44.594Z,96.69
2019-04-14T00:35:44.916Z,96.78
2019-04-14T00:36:45.864Z,96.50
2019-04-14T00:37:44.558Z,96.59
2019-04-14T00:38:45.602Z,96.03
2019-04-14T00:39:44.533Z,96.22
2019-04-14T00:40:45.422Z,96.59
2019-04-14T00:41:50.275Z,97.07
2019-04-14T00:42:45.208Z,96.88
2019-04-14T00:43:44.485Z,96.97
2019-04-14T00:44:45.290Z,96.69
2019-04-14T00:45:48.219Z,96.88
2019-04-14T00:46:45.272Z,96.78
2019-04-14T00:47:55.737Z,96.88
2019-04-14T00:48:45.225Z,96.88
2019-04-14T00:49:44.417Z,96.88
2019-04-14T00:50:45.255Z,96.97
2019-04-14T00:51:44.422Z,96.59
2019-04-14T00:52:44.380Z,96.88
2019-04-14T00:53:44.636Z,96.59
2019-04-14T00:54:45.421Z,96.50
2019-04-14T00:55:44.404Z,96.12
2019-04-14T00:56:45.443Z,96.59
2019-04-14T00:57:44.322Z,96.59
2019-04-14T00:58:45.359Z,96.12
2019-04-14T00:59:44.304Z,96.03
2019-04-14T01:00:45.155Z,96.03
2019-04-14T01:01:44.277Z,96.69
2019-04-14T01:02:45.038Z,96.12
2019-04-14T01:03:44.251Z,96.22
2019-04-14T01:04:44.774Z,96.22
2019-04-14T01:05:44.227Z,96.12
2019-04-14T01:06:44.864Z,95.45
2019-04-14T01:07:45.488Z,95.55
2019-04-14T01:08:44.511Z,95.93
2019-04-14T01:09:44.293Z,96.22
2019-04-14T01:10:45.351Z,96.31
2019-04-14T01:11:44.386Z,95.84
2019-04-14T01:12:45.299Z,96.31
2019-04-14T01:13:44.141Z,96.22
2019-04-14T01:14:45.195Z,95.26
2019-04-14T01:15:51.459Z,95.26
2019-04-14T01:16:45.194Z,95.26
2019-04-14T01:17:44.086Z,95.45
2019-04-14T01:18:45.109Z,95.26
2019-04-14T01:19:44.068Z,95.45
2019-04-14T01:20:44.973Z,95.45
2019-04-14T01:21:44.047Z,95.65
2019-04-14T01:22:44.551Z,95.36
2019-04-14T01:23:44.020Z,95.50
2019-04-14T01:24:44.688Z,95.26
2019-04-14T01:25:45.237Z,95.36
2019-04-14T01:26:44.259Z,95.55
2019-04-14T01:27:45.043Z,95.41
2019-04-14T01:28:44.089Z,95.36
2019-04-14T01:29:44.863Z,95.50
2019-04-14T01:30:43.939Z,95.55
2019-04-14T01:31:44.667Z,95.50
2019-04-14T01:32:43.918Z,95.31
2019-04-14T01:33:44.426Z,95.41
2019-04-14T01:34:43.892Z,95.22
2019-04-14T01:35:44.350Z,95.22
2019-04-14T01:36:43.867Z,95.41
2019-04-14T01:37:44.127Z,95.98
2019-04-14T01:38:44.912Z,96.26
2019-04-14T01:39:43.834Z,96.26
2019-04-14T01:40:44.578Z,95.88
2019-04-14T01:41:43.808Z,95.88
2019-04-14T01:42:44.208Z,95.98
2019-04-14T01:43:43.780Z,95.98
2019-04-14T01:44:43.895Z,95.98
2019-04-14T01:45:44.867Z,95.98
2019-04-14T01:46:43.748Z,96.17
2019-04-14T01:47:44.536Z,95.98
2019-04-14T01:48:43.724Z,95.79
2019-04-14T01:49:44.380Z,96.17
2019-04-14T01:50:43.707Z,96.07
2019-04-14T01:51:44.200Z,96.17
2019-04-14T01:52:43.734Z,95.88
2019-04-14T01:53:44.609Z,95.79
2019-04-14T01:54:43.651Z,96.17
2019-04-14T01:55:44.113Z,96.17
2019-04-14T01:56:44.914Z,96.26
2019-04-14T01:57:43.839Z,95.98
2019-04-14T01:58:44.674Z,96.07
2019-04-14T01:59:43.865Z,96.17
2019-04-14T02:00:44.469Z,96.36
2019-04-14T02:01:44.073Z,96.55
2019-04-14T02:02:44.326Z,95.79
2019-04-14T02:03:43.545Z,95.79
2019-04-14T02:04:44.342Z,96.45
2019-04-14T02:05:43.521Z,96.64
2019-04-14T02:06:44.102Z,96.36
2019-04-14T02:07:43.495Z,96.36
2019-04-14T02:08:43.703Z,96.17
2019-04-14T02:09:44.430Z,96.17
2019-04-14T02:10:43.546Z,96.17
2019-04-14T02:11:44.515Z,96.83
2019-04-14T02:12:43.436Z,96.64
2019-04-14T02:13:44.275Z,96.92
2019-04-14T02:14:43.409Z,96.45
2019-04-14T02:15:44.268Z,96.73
2019-04-14T02:16:50.063Z,96.64
2019-04-14T02:17:43.826Z,96.64
2019-04-14T02:18:43.359Z,96.73
2019-04-14T02:19:43.876Z,96.73
2019-04-14T02:20:44.599Z,96.64
2019-04-14T02:21:43.493Z,96.73
2019-04-14T02:22:44.098Z,96.92
2019-04-14T02:23:43.402Z,96.73
2019-04-14T02:24:43.878Z,96.36
2019-04-14T02:25:43.277Z,96.45
2019-04-14T02:26:43.835Z,96.92
2019-04-14T02:27:43.250Z,97.30
2019-04-14T02:28:43.881Z,97.02
2019-04-14T02:29:43.230Z,97.02
2019-04-14T02:30:53.996Z,97.30
2019-04-14T02:32:11.246Z,97.02
2019-04-14T02:33:13.855Z,96.83
2019-04-14T02:34:07.341Z,96.83
2019-04-14T02:35:13.278Z,96.92
2019-04-14T02:36:14.741Z,96.55
2019-04-14T02:37:10.760Z,96.45
2019-04-14T02:38:18.192Z,96.83
2019-04-14T02:39:13.492Z,96.64
2019-04-14T02:40:08.523Z,96.83
2019-04-14T02:41:18.890Z,96.83
2019-04-14T02:42:17.395Z,96.83
2019-04-14T02:43:12.919Z,96.64
2019-04-14T02:44:15.319Z,96.64
2019-04-14T02:45:10.424Z,96.64
2019-04-14T02:47:27.077Z,96.83
2019-04-14T02:48:29.074Z,96.45
2019-04-14T02:49:04.558Z,96.45
2019-04-14T02:50:13.868Z,97.02
2019-04-14T02:51:13.804Z,97.30
2019-04-14T02:52:12.049Z,97.21
2019-04-14T02:55:04.260Z,97.21
2019-04-14T02:57:15.043Z,97.21
2019-04-14T02:58:16.116Z,97.78
2019-04-14T02:59:03.719Z,97.68
2019-04-14T03:00:11.338Z,97.78
2019-04-14T03:01:14.777Z,97.59
2019-04-14T03:03:10.208Z,97.78
2019-04-14T03:04:09.153Z,97.87
2019-04-14T03:05:02.497Z,97.78
2019-04-14T03:06:05.751Z,97.97
2019-04-14T03:08:06.554Z,97.68
2019-04-14T03:09:22.137Z,97.40
2019-04-14T03:10:13.083Z,97.40
2019-04-14T03:11:25.705Z,98.06
2019-04-14T03:12:14.466Z,98.25
2019-04-14T03:13:13.135Z,97.97
2019-04-14T03:14:08.941Z,98.06
2019-04-14T03:15:08.060Z,98.06
2019-04-14T03:16:17.502Z,98.25
2019-04-14T03:17:21.455Z,98.54
2019-04-14T03:18:24.039Z,98.44
2019-04-14T03:19:09.478Z,98.63
2019-04-14T03:20:13.692Z,97.78
2019-04-14T03:21:13.797Z,98.25
2019-04-14T03:22:25.825Z,98.35
2019-04-14T03:23:19.272Z,98.54
2019-04-14T03:24:55.366Z,98.72
2019-04-14T03:26:05.031Z,98.44
2019-04-14T03:27:09.412Z,98.82
2019-04-14T03:28:28.387Z,98.72
2019-04-14T03:29:05.390Z,98.54
2019-04-14T03:30:17.467Z,98.35
2019-04-14T03:35:36.009Z,98.72
2019-04-14T03:38:14.638Z,98.63
2019-04-14T03:39:12.472Z,98.63
2019-04-14T03:40:10.002Z,98.72
2019-04-14T03:42:10.836Z,98.72
2019-04-14T03:43:17.062Z,98.35
2019-04-14T03:44:11.757Z,98.06
2019-04-14T03:45:07.903Z,98.72
2019-04-14T03:46:18.002Z,98.25
2019-04-14T03:49:26.524Z,98.16
2019-04-14T03:50:05.931Z,97.40
2019-04-14T03:51:15.107Z,97.97
2019-04-14T03:52:08.609Z,97.78
2019-04-14T03:54:03.364Z,97.40
2019-04-14T03:54:56.976Z,97.59
2019-04-14T03:55:49.112Z,97.78
2019-04-14T03:56:42.175Z,97.83
2019-04-14T03:57:43.321Z,97.78
2019-04-14T03:58:42.169Z,97.78
2019-04-14T03:59:43.443Z,97.78
2019-04-14T04:00:42.219Z,97.68
2019-04-14T04:01:43.424Z,97.59
2019-04-14T04:02:42.319Z,97.78
2019-04-14T04:03:42.089Z,97.78
2019-04-14T04:04:42.377Z,97.78
2019-04-14T04:05:42.061Z,97.97
2019-04-14T04:06:42.266Z,97.59
2019-04-14T04:07:43.158Z,97.40
2019-04-14T04:08:42.103Z,97.40
2019-04-14T04:09:43.232Z,97.30
2019-04-14T04:10:42.242Z,97.87
2019-04-14T04:11:43.304Z,98.06
2019-04-14T04:12:42.217Z,97.59
2019-04-14T04:13:41.975Z,97.78
2019-04-14T04:14:42.034Z,97.97
2019-04-14T04:15:43.195Z,98.06
2019-04-14T04:16:41.981Z,98.02
2019-04-14T04:17:42.947Z,98.63
2019-04-14T04:18:50.859Z,98.02
2019-04-14T04:19:42.641Z,98.06
2019-04-14T04:20:41.887Z,98.11
2019-04-14T04:21:42.337Z,98.02
2019-04-14T04:22:41.858Z,97.83
2019-04-14T04:23:42.451Z,98.11
2019-04-14T04:24:41.841Z,97.92
2019-04-14T04:25:42.206Z,97.83
2019-04-14T04:26:42.874Z,97.83
2019-04-14T04:27:41.952Z,97.92
2019-04-14T04:28:42.851Z,97.83
2019-04-14T04:29:42.036Z,97.83
2019-04-14T04:30:42.671Z,97.83
2019-04-14T04:31:41.794Z,97.83
2019-04-14T04:32:42.591Z,98.02
2019-04-14T04:33:41.735Z,97.92
2019-04-14T04:34:42.334Z,98.02
2019-04-14T04:35:41.711Z,97.83
2019-04-14T04:36:42.028Z,97.73
2019-04-14T04:37:41.684Z,98.21
2019-04-14T04:38:42.039Z,97.92
2019-04-14T04:39:41.668Z,97.92
2019-04-14T04:40:41.905Z,97.83
2019-04-14T04:41:42.801Z,97.73
2019-04-14T04:42:41.700Z,97.64
2019-04-14T04:43:41.618Z,98.21
2019-04-14T04:44:42.156Z,97.35
2019-04-14T04:45:41.600Z,98.11
2019-04-14T04:46:41.632Z,97.64
2019-04-14T04:47:42.590Z,97.73
2019-04-14T04:48:41.557Z,97.64
2019-04-14T04:49:42.616Z,97.64
2019-04-14T04:50:41.540Z,97.64
2019-04-14T04:51:42.153Z,97.64
2019-04-14T04:52:41.514Z,97.64
2019-04-14T04:53:41.983Z,97.54
2019-04-14T04:54:42.752Z,98.02
2019-04-14T04:55:41.717Z,98.02
2019-04-14T04:56:42.633Z,97.73
2019-04-14T04:57:41.637Z,97.92
2019-04-14T04:58:41.440Z,97.16
2019-04-14T04:59:41.428Z,97.16
2019-04-14T05:00:41.677Z,97.26
2019-04-14T05:01:41.407Z,96.97
2019-04-14T05:02:41.792Z,97.07
2019-04-14T05:03:41.389Z,97.16
2019-04-14T05:04:41.627Z,97.35
2019-04-14T05:05:41.366Z,96.97
2019-04-14T05:06:41.716Z,97.26
2019-04-14T05:07:42.439Z,96.97
2019-04-14T05:08:41.374Z,96.97
2019-04-14T05:09:41.312Z,97.26
2019-04-14T05:10:41.433Z,97.02
2019-04-14T05:11:42.557Z,96.69
2019-04-14T05:12:41.424Z,97.02
2019-04-14T05:13:42.362Z,97.12
2019-04-14T05:14:41.284Z,96.73
2019-04-14T05:15:42.381Z,97.12
2019-04-14T05:16:41.864Z,96.26
2019-04-14T05:17:41.226Z,96.64
2019-04-14T05:18:41.917Z,96.55
2019-04-14T05:19:42.052Z,96.55
2019-04-14T05:20:42.034Z,96.73
2019-04-14T05:21:41.176Z,96.17
2019-04-14T05:22:41.863Z,96.26
2019-04-14T05:23:41.161Z,95.88
2019-04-14T05:24:41.776Z,96.08
2019-04-14T05:25:41.137Z,95.98
2019-04-14T05:26:41.745Z,95.22
2019-04-14T05:27:41.107Z,95.22
2019-04-14T05:28:41.651Z,96.36
2019-04-14T05:29:41.086Z,95.50
2019-04-14T05:30:41.517Z,95.31
2019-04-14T05:31:41.067Z,95.36
2019-04-14T05:32:41.351Z,94.89
2019-04-14T05:33:41.040Z,95.07
2019-04-14T05:34:41.224Z,94.70
2019-04-14T05:35:42.097Z,94.42
2019-04-14T05:36:41.168Z,94.13
2019-04-14T05:37:41.921Z,93.94
2019-04-14T05:38:40.982Z,93.84
2019-04-14T05:39:41.901Z,93.41
2019-04-14T05:40:40.964Z,93.18
2019-04-14T05:41:55.849Z,92.99
2019-04-14T05:42:40.958Z,93.27
2019-04-14T05:43:48.784Z,93.23
2019-04-14T05:44:40.924Z,93.32
2019-04-14T05:45:41.647Z,93.27
2019-04-14T05:46:40.919Z,92.66
2019-04-14T05:47:41.483Z,93.32
2019-04-14T05:48:40.880Z,92.66
2019-04-14T05:49:45.506Z,93.41
2019-04-14T05:50:40.855Z,93.51
2019-04-14T05:51:41.567Z,92.75
2019-04-14T05:52:40.833Z,92.18
2019-04-14T05:53:41.591Z,92.28
2019-04-14T05:54:40.820Z,91.80
2019-04-14T05:55:41.633Z,91.61
2019-04-14T05:56:40.824Z,92.09
2019-04-14T05:57:41.647Z,92.09
2019-04-14T05:58:40.775Z,91.42
2019-04-14T05:59:41.795Z,91.61
2019-04-14T06:00:40.759Z,92.09
2019-04-14T06:01:41.956Z,91.52
2019-04-14T06:02:41.925Z,91.85
2019-04-14T06:03:40.840Z,92.04
2019-04-14T06:04:41.714Z,91.33
2019-04-14T06:05:40.702Z,91.52
2019-04-14T06:06:40.697Z,91.14
2019-04-14T06:07:40.688Z,91.52
2019-04-14T06:08:40.680Z,91.14
2019-04-14T06:09:40.668Z,90.76
2019-04-14T06:10:40.653Z,91.24
2019-04-14T06:11:40.643Z,90.99
2019-04-14T06:12:40.637Z,90.80
2019-04-14T06:13:40.626Z,90.80
2019-04-14T06:14:40.621Z,90.33
2019-04-14T06:15:40.613Z,90.71
2019-04-14T06:16:40.599Z,90.42
2019-04-14T06:17:40.588Z,89.76
2019-04-14T06:18:40.583Z,89.00
2019-04-14T06:19:40.780Z,89.57
2019-04-14T06:20:40.561Z,89.57
2019-04-14T06:21:40.550Z,89.95
2019-04-14T06:22:40.538Z,89.23
2019-04-14T06:23:40.584Z,89.04
2019-04-14T06:24:40.520Z,89.00
2019-04-14T06:25:40.510Z,87.09
2019-04-14T06:26:40.506Z,85.71
2019-04-14T06:27:40.495Z,83.90
2019-04-14T06:28:40.509Z,83.23
2019-04-14T06:29:40.481Z,83.04
2019-04-14T06:30:40.469Z,81.81
2019-04-14T06:31:40.460Z,81.43
2019-04-14T06:32:40.455Z,81.77
2019-04-14T06:33:40.445Z,82.34
2019-04-14T06:34:40.435Z,82.62
2019-04-14T06:35:40.426Z,83.39
2019-04-14T06:36:40.417Z,83.10
2019-04-14T06:37:40.411Z,84.14
2019-04-14T06:38:40.404Z,84.43
2019-04-14T06:39:40.395Z,84.91
2019-04-14T06:40:40.390Z,84.19
2019-04-14T06:41:40.382Z,83.33
2019-04-14T06:42:40.371Z,82.99
2019-04-14T06:43:48.661Z,81.76
2019-04-14T06:44:40.352Z,80.46
2019-04-14T06:45:40.342Z,79.60
2019-04-14T06:46:40.341Z,79.07
2019-04-14T06:47:40.334Z,78.12
2019-04-14T06:48:40.321Z,76.88
2019-04-14T06:49:48.937Z,76.16
2019-04-14T06:50:40.313Z,75.78
2019-04-14T06:51:40.307Z,75.49
2019-04-14T06:52:40.300Z,74.67
2019-04-14T06:53:40.293Z,74.38
2019-04-14T06:54:40.285Z,74.01
2019-04-14T06:55:40.279Z,73.21
2019-04-14T06:56:40.272Z,73.43
2019-04-14T06:57:40.265Z,72.57
2019-04-14T06:58:40.266Z,72.13
2019-04-14T06:59:40.259Z,71.08
2019-04-14T07:00:40.250Z,69.93
2019-04-14T07:01:40.252Z,69.27
2019-04-14T07:02:40.237Z,69.02
2019-04-14T07:03:40.234Z,67.97
2019-04-14T07:04:40.234Z,67.97
2019-04-14T07:05:40.226Z,67.68
2019-04-14T07:06:40.219Z,67.36
2019-04-14T07:07:40.215Z,67.42
2019-04-14T07:08:40.212Z,68.79
2019-04-14T07:09:40.210Z,68.54
2019-04-14T07:10:40.208Z,68.12
2019-04-14T07:11:40.206Z,68.03
2019-04-14T07:12:42.917Z,68.95
2019-04-14T07:13:40.221Z,68.76
2019-04-14T07:14:40.191Z,68.66
2019-04-14T07:15:40.187Z,68.47
2019-04-14T07:16:40.180Z,68.66
2019-04-14T07:17:40.177Z,68.76
2019-04-14T07:18:40.176Z,68.70
2019-04-14T07:19:40.178Z,68.12
2019-04-14T07:20:40.169Z,66.92
2019-04-14T07:21:40.164Z,67.05
2019-04-14T07:22:40.166Z,66.72
2019-04-14T07:23:40.162Z,66.38
2019-04-14T07:24:40.158Z,66.09
2019-04-14T07:25:40.155Z,65.33
2019-04-14T07:26:40.148Z,65.58
2019-04-14T07:27:40.147Z,65.20
2019-04-14T07:28:40.178Z,65.58
2019-04-14T07:29:40.140Z,64.72
2019-04-14T07:30:40.140Z,64.81
2019-04-14T07:31:40.137Z,65.58
2019-04-14T07:32:40.131Z,65.39
2019-04-14T07:33:40.129Z,65.48
2019-04-14T07:34:40.121Z,65.67
2019-04-14T07:35:40.119Z,65.14
2019-04-14T07:36:40.120Z,64.40
2019-04-14T07:37:40.116Z,63.89
2019-04-14T07:38:40.111Z,63.60
2019-04-14T07:39:40.110Z,63.73
2019-04-14T07:40:40.110Z,63.57
2019-04-14T07:41:40.108Z,63.03
2019-04-14T07:42:40.111Z,62.08
2019-04-14T07:43:40.107Z,60.77
2019-04-14T07:44:40.104Z,59.23
2019-04-14T07:45:40.102Z,58.56
2019-04-14T07:46:40.095Z,57.99
2019-04-14T07:47:40.094Z,57.16
2019-04-14T07:48:40.096Z,56.08
2019-04-14T07:49:40.094Z,56.56
2019-04-14T07:50:40.099Z,56.24
2019-04-14T07:51:40.097Z,56.53
2019-04-14T07:52:40.095Z,57.29
2019-04-14T07:53:40.089Z,56.56
2019-04-14T07:54:41.449Z,56.46
2019-04-14T07:55:40.097Z,56.37
2019-04-14T07:56:40.091Z,56.10
2019-04-14T07:57:40.097Z,55.97
2019-04-14T07:58:40.085Z,55.13
2019-04-14T07:59:40.084Z,54.66
2019-04-14T08:00:40.086Z,53.67
2019-04-14T08:01:40.084Z,53.83
2019-04-14T08:02:40.090Z,53.59
2019-04-14T08:03:40.097Z,55.05
2019-04-14T08:04:40.091Z,55.36
2019-04-14T08:05:40.094Z,55.05
2019-04-14T08:06:40.089Z,55.08
2019-04-14T08:07:40.091Z,55.08
2019-04-14T08:08:40.093Z,55.08
2019-04-14T08:09:40.094Z,54.56
2019-04-14T08:10:40.091Z,53.82
2019-04-14T08:11:40.095Z,52.83
2019-04-14T08:12:40.091Z,52.33
2019-04-14T08:13:40.090Z,52.83
2019-04-14T08:14:40.098Z,52.36
2019-04-14T08:15:40.098Z,52.00
2019-04-14T08:16:40.099Z,51.81
2019-04-14T08:17:40.101Z,52.04
2019-04-14T08:18:40.111Z,51.81
2019-04-14T08:19:40.100Z,52.16
2019-04-14T08:20:40.105Z,52.16
2019-04-14T08:21:40.105Z,51.23
2019-04-14T08:22:40.115Z,51.04
2019-04-14T08:23:40.114Z,50.73
2019-04-14T08:24:40.115Z,50.75
2019-04-14T08:25:40.113Z,51.28
2019-04-14T08:26:40.133Z,50.32
2019-04-14T08:27:40.124Z,50.03
2019-04-14T08:28:40.122Z,48.97
2019-04-14T08:29:40.124Z,48.61
2019-04-14T08:30:40.126Z,48.23
2019-04-14T08:31:40.126Z,47.92
2019-04-14T08:32:40.128Z,47.66
2019-04-14T08:33:40.133Z,47.44
2019-04-14T08:34:40.139Z,47.36
2019-04-14T08:35:40.144Z,46.77
2019-04-14T08:36:40.145Z,47.15
2019-04-14T08:37:40.150Z,47.17
2019-04-14T08:38:40.184Z,46.72
2019-04-14T08:39:40.152Z,46.36
2019-04-14T08:40:40.162Z,44.79
2019-04-14T08:41:40.165Z,44.79
2019-04-14T08:42:40.164Z,44.70
2019-04-14T08:43:40.168Z,44.68
2019-04-14T08:44:40.169Z,45.32
2019-04-14T08:45:40.174Z,45.57
2019-04-14T08:46:40.183Z,46.72
2019-04-14T08:47:40.186Z,47.51
2019-04-14T08:48:40.187Z,47.53
2019-04-14T08:49:40.191Z,47.03
2019-04-14T08:50:40.217Z,46.94
2019-04-14T08:51:40.203Z,47.05
2019-04-14T08:52:40.205Z,46.38
2019-04-14T08:53:40.209Z,45.52
2019-04-14T08:54:40.209Z,45.85
2019-04-14T08:55:40.214Z,44.99
2019-04-14T08:56:40.222Z,44.38
2019-04-14T08:57:40.228Z,44.31
2019-04-14T08:58:40.225Z,44.72
2019-04-14T08:59:40.231Z,43.01
2019-04-14T09:00:40.239Z,43.01
2019-04-14T09:01:40.242Z,42.83
2019-04-14T09:02:40.253Z,43.14
2019-04-14T09:03:40.256Z,43.43
2019-04-14T09:04:40.265Z,43.33
2019-04-14T09:05:40.265Z,43.54
2019-04-14T09:06:40.267Z,43.31
2019-04-14T09:07:40.271Z,44.31
2019-04-14T09:08:40.273Z,43.66
2019-04-14T09:09:40.277Z,43.13
2019-04-14T09:10:40.288Z,42.47
2019-04-14T09:11:40.295Z,41.82
2019-04-14T09:12:40.294Z,40.37
2019-04-14T09:13:40.298Z,40.36
2019-04-14T09:14:40.309Z,40.28
2019-04-14T09:15:40.313Z,40.01
2019-04-14T09:16:40.324Z,39.62
2019-04-14T09:17:40.329Z,38.04
2019-04-14T09:18:40.329Z,38.26
2019-04-14T09:19:40.336Z,38.62
2019-04-14T09:20:51.812Z,38.66
2019-04-14T09:21:40.347Z,38.18
2019-04-14T09:22:40.359Z,38.06
2019-04-14T09:23:40.366Z,38.22
2019-04-14T09:24:40.367Z,38.12
2019-04-14T09:25:40.373Z,38.83
2019-04-14T09:26:40.374Z,38.54
2019-04-14T09:27:40.382Z,38.22
2019-04-14T09:28:40.391Z,38.53
2019-04-14T09:29:40.398Z,38.46
2019-04-14T09:30:40.401Z,38.01
2019-04-14T09:31:40.407Z,37.93
2019-04-14T09:32:40.417Z,36.67
2019-04-14T09:33:40.423Z,35.86
2019-04-14T09:34:40.434Z,35.26
2019-04-14T09:35:40.444Z,35.05
2019-04-14T09:36:40.447Z,34.94
2019-04-14T09:37:40.457Z,35.08
2019-04-14T09:38:40.459Z,36.21
2019-04-14T09:39:40.467Z,37.02
2019-04-14T09:40:40.471Z,36.71
2019-04-14T09:41:40.479Z,36.89
2019-04-14T09:42:40.491Z,37.29
2019-04-14T09:43:40.497Z,37.04
2019-04-14T09:44:40.499Z,36.79
2019-04-14T09:45:40.506Z,36.42
2019-04-14T09:46:40.518Z,35.36
2019-04-14T09:47:40.526Z,34.74
2019-04-14T09:48:42.776Z,34.72
2019-04-14T09:49:40.556Z,35.10
2019-04-14T09:50:40.547Z,35.28
2019-04-14T09:51:40.564Z,35.86
2019-04-14T09:52:40.558Z,36.57
2019-04-14T09:53:40.567Z,35.80
2019-04-14T09:54:40.579Z,35.98
2019-04-14T09:55:40.588Z,35.48
2019-04-14T09:56:40.601Z,36.04
2019-04-14T09:57:40.603Z,36.63
2019-04-14T09:58:40.607Z,36.61
2019-04-14T09:59:40.615Z,36.81
2019-04-14T10:00:40.628Z,36.15
2019-04-14T10:01:40.636Z,35.88
2019-04-14T10:02:40.638Z,34.92
2019-04-14T10:03:40.647Z,34.34
2019-04-14T10:04:40.652Z,33.86
2019-04-14T10:05:40.657Z,32.67
2019-04-14T10:06:41.052Z,33.31
2019-04-14T10:07:40.679Z,34.48
2019-04-14T10:08:40.685Z,34.58
2019-04-14T10:09:40.692Z,34.19
2019-04-14T10:10:40.696Z,34.67
2019-04-14T10:11:48.423Z,34.30
2019-04-14T10:12:40.713Z,35.22
2019-04-14T10:13:40.722Z,36.13
2019-04-14T10:14:40.730Z,37.97
2019-04-14T10:15:40.740Z,38.68
2019-04-14T10:16:40.740Z,39.41
2019-04-14T10:17:40.746Z,38.20
2019-04-14T10:18:40.757Z,38.04
2019-04-14T10:19:40.763Z,37.97
2019-04-14T10:20:40.767Z,38.26
2019-04-14T10:21:40.774Z,38.26
2019-04-14T10:22:40.773Z,38.66
2019-04-14T10:23:40.779Z,38.35
2019-04-14T10:24:40.838Z,38.28
2019-04-14T10:25:40.790Z,38.20
2019-04-14T10:26:40.802Z,37.72
2019-04-14T10:27:40.807Z,37.83
2019-04-14T10:28:40.813Z,36.68
2019-04-14T10:29:40.825Z,35.97
2019-04-14T10:30:40.821Z,36.78
2019-04-14T10:31:40.832Z,38.04
2019-04-14T10:32:40.836Z,38.26
2019-04-14T10:33:40.842Z,37.95
2019-04-14T10:34:40.850Z,38.43
2019-04-14T10:35:40.851Z,37.97
2019-04-14T10:36:40.852Z,37.93
2019-04-14T10:37:40.863Z,38.32
2019-04-14T10:38:40.869Z,38.74
2019-04-14T10:39:40.874Z,38.24
2019-04-14T10:40:40.880Z,38.41
2019-04-14T10:41:40.887Z,38.10
2019-04-14T10:42:40.887Z,37.95
2019-04-14T10:43:40.909Z,38.68
2019-04-14T10:44:40.901Z,40.12
2019-04-14T10:45:40.907Z,40.88
2019-04-14T10:46:40.915Z,41.27
2019-04-14T10:47:40.919Z,41.40
2019-04-14T10:48:40.919Z,41.31
2019-04-14T10:49:40.925Z,40.83
2019-04-14T10:50:40.934Z,40.35
2019-04-14T10:51:40.941Z,39.87
2019-04-14T10:52:40.939Z,39.39
2019-04-14T10:53:40.943Z,39.41
2019-04-14T10:54:40.944Z,39.72
2019-04-14T10:55:40.946Z,39.33
2019-04-14T10:56:40.954Z,39.33
2019-04-14T10:57:40.960Z,39.33
2019-04-14T10:58:40.970Z,39.23
2019-04-14T10:59:40.970Z,39.45
2019-04-14T11:00:40.971Z,39.26
2019-04-14T11:01:40.976Z,38.20
2019-04-14T11:02:40.975Z,38.09
2019-04-14T11:03:40.981Z,38.66
2019-04-14T11:04:40.986Z,38.45
2019-04-14T11:05:40.991Z,39.33
2019-04-14T11:06:40.992Z,39.54
2019-04-14T11:07:40.995Z,39.47
2019-04-14T11:08:41.002Z,38.43
2019-04-14T11:09:41.006Z,38.04
2019-04-14T11:10:41.013Z,38.07
2019-04-14T11:11:41.018Z,36.82
2019-04-14T11:12:41.020Z,36.97
2019-04-14T11:13:41.027Z,36.66
2019-04-14T11:14:41.026Z,37.78
2019-04-14T11:15:41.032Z,38.43
2019-04-14T11:16:41.036Z,38.45
2019-04-14T11:17:41.036Z,38.45
2019-04-14T11:18:41.049Z,38.34
2019-04-14T11:19:41.048Z,39.03
2019-04-14T11:20:41.047Z,39.62
2019-04-14T11:21:42.591Z,39.41
2019-04-14T11:22:41.061Z,39.70
2019-04-14T11:23:41.063Z,39.77
2019-04-14T11:24:41.069Z,40.06
2019-04-14T11:25:41.076Z,40.61
2019-04-14T11:26:41.070Z,41.57
2019-04-14T11:27:41.073Z,42.34
2019-04-14T11:28:41.076Z,42.74
2019-04-14T11:29:41.079Z,42.72
2019-04-14T11:30:41.086Z,42.41
2019-04-14T11:31:41.093Z,42.22
2019-04-14T11:32:41.087Z,42.30
2019-04-14T11:33:41.089Z,42.20
2019-04-14T11:34:41.087Z,42.32
2019-04-14T11:35:41.087Z,42.70
2019-04-14T11:36:41.094Z,42.30
2019-04-14T11:37:41.164Z,42.56
2019-04-14T11:38:41.090Z,43.14
2019-04-14T11:39:41.091Z,42.94
2019-04-14T11:40:41.093Z,43.23
2019-04-14T11:41:41.094Z,43.71
2019-04-14T11:42:51.775Z,43.43
2019-04-14T11:43:41.097Z,43.21
2019-04-14T11:44:41.094Z,43.86
2019-04-14T11:45:41.095Z,44.81
2019-04-14T11:46:41.087Z,45.48
2019-04-14T11:47:41.087Z,45.56
2019-04-14T11:48:41.080Z,46.03
2019-04-14T11:49:41.080Z,46.32
2019-04-14T11:50:41.082Z,46.51
2019-04-14T11:51:41.081Z,46.99
2019-04-14T11:52:41.075Z,47.27
2019-04-14T11:53:41.119Z,47.18
2019-04-14T11:54:41.079Z,48.13
2019-04-14T11:55:41.070Z,48.16
2019-04-14T11:56:41.068Z,48.64
2019-04-14T11:57:41.073Z,48.44
2019-04-14T11:58:41.071Z,49.11
2019-04-14T11:59:41.056Z,49.14
2019-04-14T12:00:41.051Z,49.62
2019-04-14T12:01:41.046Z,49.14
2019-04-14T12:02:41.047Z,48.66
2019-04-14T12:03:41.043Z,48.11
2019-04-14T12:04:41.043Z,47.63
2019-04-14T12:05:41.038Z,46.67
2019-04-14T12:06:41.030Z,45.91
2019-04-14T12:07:41.032Z,46.37
2019-04-14T12:08:41.027Z,45.89
2019-04-14T12:09:41.023Z,45.70
2019-04-14T12:10:41.016Z,45.70
2019-04-14T12:11:41.013Z,44.34
2019-04-14T12:12:41.009Z,43.38
2019-04-14T12:13:41.002Z,43.21
2019-04-14T12:14:41.004Z,43.29
2019-04-14T12:15:40.998Z,42.71
2019-04-14T12:16:40.994Z,43.19
2019-04-14T12:17:40.991Z,44.72
2019-04-14T12:18:40.997Z,46.42
2019-04-14T12:19:40.980Z,47.68
2019-04-14T12:20:40.977Z,48.54
2019-04-14T12:21:40.974Z,49.11
2019-04-14T12:22:40.975Z,49.98
2019-04-14T12:23:40.968Z,49.88
2019-04-14T12:24:40.959Z,50.07
2019-04-14T12:25:40.955Z,49.88
2019-04-14T12:26:40.955Z,49.59
2019-04-14T12:27:42.000Z,49.18
2019-04-14T12:28:40.944Z,49.59
2019-04-14T12:29:41.245Z,49.57
2019-04-14T12:30:41.955Z,49.98
2019-04-14T12:31:41.966Z,50.35
2019-04-14T12:32:40.921Z,50.84
2019-04-14T12:33:40.917Z,49.78
2019-04-14T12:34:40.917Z,49.88
2019-04-14T12:35:40.913Z,49.49
2019-04-14T12:36:40.912Z,49.69
2019-04-14T12:37:40.905Z,49.69
2019-04-14T12:38:40.897Z,49.49
2019-04-14T12:39:40.896Z,49.21
2019-04-14T12:40:40.893Z,49.40
2019-04-14T12:41:40.888Z,49.02
2019-04-14T12:42:40.879Z,49.59
2019-04-14T12:43:40.876Z,49.21
2019-04-14T12:44:40.866Z,48.61
2019-04-14T12:45:40.863Z,48.90
2019-04-14T12:46:40.863Z,49.57
2019-04-14T12:47:40.861Z,49.98
2019-04-14T12:48:40.864Z,49.57
2019-04-14T12:49:40.849Z,49.11
2019-04-14T12:50:40.841Z,48.23
2019-04-14T12:51:40.837Z,48.88
2019-04-14T12:52:40.832Z,49.44
2019-04-14T12:53:40.827Z,49.83
2019-04-14T12:54:40.827Z,50.88
2019-04-14T12:55:40.823Z,50.69
2019-04-14T12:56:43.443Z,50.71
2019-04-14T12:57:40.808Z,51.19
2019-04-14T12:58:40.809Z,50.62
2019-04-14T12:59:40.803Z,50.93
2019-04-14T13:00:40.796Z,50.90
2019-04-14T13:01:40.790Z,50.71
2019-04-14T13:02:40.782Z,50.33
2019-04-14T13:03:42.060Z,50.90
2019-04-14T13:04:40.768Z,50.52
2019-04-14T13:05:40.765Z,50.71
2019-04-14T13:06:40.767Z,50.33
2019-04-14T13:07:40.758Z,50.62
2019-04-14T13:08:40.756Z,50.62
2019-04-14T13:09:40.752Z,50.43